createdAt,value
2019-02-07T00:01:33.599Z,30.72
2019-02-07T00:04:01.709Z,29.57
2019-02-07T00:06:29.568Z,28.07
2019-02-07T00:08:59.390Z,29.57
2019-02-07T00:11:27.625Z,28.17
2019-02-07T00:13:55.279Z,26.30
2019-02-07T00:16:23.141Z,27.80
2019-02-07T00:18:51.030Z,27.43
2019-02-07T00:21:18.807Z,26.83
2019-02-07T00:23:46.664Z,28.03
2019-02-07T00:26:14.462Z,27.67
2019-02-07T00:28:42.849Z,26.87
2019-02-07T00:31:11.037Z,26.20
2019-02-07T00:33:41.357Z,27.20
2019-02-07T00:36:09.511Z,31.87
2019-02-07T00:38:37.220Z,36.20
2019-02-07T00:41:06.831Z,31.70
2019-02-07T00:43:34.129Z,26.33
2019-02-07T00:46:02.347Z,41.17
2019-02-07T00:48:30.799Z,33.67
2019-02-07T00:50:58.839Z,25.67
2019-02-07T00:53:26.714Z,28.07
2019-02-07T00:55:55.340Z,26.33
2019-02-07T00:58:22.883Z,26.65
2019-02-07T01:00:50.431Z,24.73
2019-02-07T01:03:18.274Z,26.47
2019-02-07T01:05:45.747Z,25.70
2019-02-07T01:08:13.554Z,24.63
2019-02-07T01:10:41.902Z,25.90
2019-02-07T01:13:09.719Z,26.52
2019-02-07T01:15:37.570Z,26.83
2019-02-07T01:18:05.697Z,28.00
2019-02-07T01:20:33.247Z,26.67
2019-02-07T01:23:01.127Z,25.00
2019-02-07T01:25:29.014Z,25.97
2019-02-07T01:27:56.631Z,25.83
2019-02-07T01:30:24.929Z,28.50
2019-02-07T01:32:53.271Z,26.90
2019-02-07T01:35:21.328Z,27.75
2019-02-07T01:37:50.091Z,27.20
2019-02-07T01:40:17.741Z,26.73
2019-02-07T01:42:45.476Z,25.00
2019-02-07T01:45:15.550Z,28.57
2019-02-07T01:47:43.355Z,27.40
2019-02-07T01:50:11.890Z,26.27
2019-02-07T01:52:40.335Z,25.30
2019-02-07T01:55:09.267Z,27.97
2019-02-07T01:57:37.816Z,26.43
2019-02-07T02:00:09.236Z,26.60
2019-02-07T02:02:37.132Z,25.90
2019-02-07T02:05:06.227Z,25.47
2019-02-07T02:07:33.750Z,24.23
2019-02-07T02:10:01.655Z,23.90
2019-02-07T02:12:30.243Z,25.60
2019-02-07T02:14:57.987Z,27.07
2019-02-07T02:17:25.614Z,25.20
2019-02-07T02:19:53.192Z,25.10
2019-02-07T02:22:20.774Z,23.77
2019-02-07T02:24:48.298Z,28.10
2019-02-07T02:27:16.548Z,26.03
2019-02-07T02:29:45.000Z,26.73
2019-02-07T02:32:12.525Z,25.43
2019-02-07T02:34:40.542Z,23.10
2019-02-07T02:37:08.388Z,23.07
2019-02-07T02:39:35.907Z,23.83
2019-02-07T02:42:04.233Z,22.43
2019-02-07T02:44:32.717Z,25.25
2019-02-07T02:47:00.832Z,23.27
2019-02-07T02:49:29.232Z,23.20
2019-02-07T02:51:57.763Z,23.30
2019-02-07T02:54:34.523Z,23.07
2019-02-07T02:57:04.786Z,23.20
2019-02-07T02:59:33.983Z,22.67
2019-02-07T03:02:19.757Z,23.80
2019-02-07T03:05:00.603Z,25.63
2019-02-07T03:07:38.652Z,22.50
2019-02-07T03:10:30.234Z,23.70
2019-02-07T03:13:25.993Z,21.67
2019-02-07T03:16:04.868Z,23.00
2019-02-07T03:18:52.268Z,23.93
2019-02-07T03:21:39.653Z,22.30
2019-02-07T03:24:26.258Z,22.00
2019-02-07T03:27:19.791Z,23.10
2019-02-07T03:30:16.051Z,24.15
2019-02-07T03:33:06.664Z,21.33
2019-02-07T03:35:58.019Z,23.60
2019-02-07T03:38:40.946Z,22.90
2019-02-07T03:41:20.210Z,22.13
2019-02-07T03:44:16.365Z,24.63
2019-02-07T03:47:03.930Z,22.87
2019-02-07T03:49:43.047Z,24.65
2019-02-07T03:52:29.052Z,23.90
2019-02-07T03:55:16.124Z,21.80
2019-02-07T03:58:09.980Z,23.85
2019-02-07T04:01:00.417Z,24.53
2019-02-07T04:03:53.571Z,23.45
2019-02-07T04:06:46.543Z,24.27
2019-02-07T04:09:42.933Z,24.70
2019-02-07T04:12:35.822Z,25.70
2019-02-07T04:15:30.904Z,22.77
2019-02-07T04:18:19.195Z,22.47
2019-02-07T04:21:04.852Z,23.23
2019-02-07T04:23:54.980Z,25.40
2019-02-07T04:26:48.072Z,23.38
2019-02-07T04:29:34.806Z,22.90
2019-02-07T04:32:33.895Z,25.67
2019-02-07T04:35:20.794Z,27.27
2019-02-07T04:38:06.655Z,23.70
2019-02-07T04:40:43.920Z,24.30
2019-02-07T04:43:20.521Z,32.83
2019-02-07T04:46:26.707Z,45.85
2019-02-07T04:49:24.395Z,34.90
2019-02-07T04:52:05.632Z,23.67
2019-02-07T04:54:43.852Z,25.85
2019-02-07T04:57:49.171Z,28.40
2019-02-07T05:00:31.644Z,25.17
2019-02-07T05:03:24.880Z,25.23
2019-02-07T05:06:15.348Z,24.77
2019-02-07T05:08:59.317Z,24.00
2019-02-07T05:11:53.194Z,24.77
2019-02-07T05:14:40.255Z,23.97
2019-02-07T05:17:36.240Z,26.37
2019-02-07T05:20:31.210Z,24.52
2019-02-07T05:23:18.851Z,26.60
2019-02-07T05:26:04.524Z,25.40
2019-02-07T05:28:47.809Z,27.90
2019-02-07T05:31:40.847Z,26.45
2019-02-07T05:34:30.602Z,26.45
2019-02-07T05:37:07.814Z,25.80
2019-02-07T05:40:02.653Z,25.67
2019-02-07T05:42:48.945Z,24.77
2019-02-07T05:45:34.676Z,23.65
2019-02-07T05:48:25.062Z,24.37
2019-02-07T05:51:10.743Z,24.63
2019-02-07T05:54:03.888Z,23.30
2019-02-07T05:56:50.379Z,25.17
2019-02-07T05:59:37.529Z,25.70
2019-02-07T06:02:26.325Z,30.88
2019-02-07T06:05:13.172Z,29.05
2019-02-07T06:07:52.244Z,27.87
2019-02-07T06:10:51.064Z,23.70
2019-02-07T06:13:43.675Z,26.12
2019-02-07T06:16:24.139Z,25.97
2019-02-07T06:19:10.035Z,25.10
2019-02-07T06:22:09.363Z,23.73
2019-02-07T06:25:05.179Z,25.55
2019-02-07T06:27:50.189Z,27.80
2019-02-07T06:30:37.963Z,24.67
2019-02-07T06:33:23.583Z,27.75
2019-02-07T06:36:11.341Z,24.85
2019-02-07T06:39:03.350Z,24.80
2019-02-07T06:41:53.163Z,28.17
2019-02-07T06:44:36.823Z,27.67
2019-02-07T06:47:23.864Z,28.23
2019-02-07T06:50:23.208Z,27.27
2019-02-07T06:52:59.830Z,26.15
2019-02-07T06:55:49.046Z,25.50
2019-02-07T06:58:35.179Z,25.07
2019-02-07T07:01:13.180Z,26.07
2019-02-07T07:04:05.633Z,26.97
2019-02-07T07:06:52.061Z,27.20
2019-02-07T07:09:36.352Z,26.53
2019-02-07T07:12:30.160Z,26.15
2019-02-07T07:15:32.550Z,24.65
2019-02-07T07:18:22.475Z,23.32
2019-02-07T07:21:18.759Z,26.07
2019-02-07T07:24:04.140Z,26.27
2019-02-07T07:26:49.912Z,26.20
2019-02-07T07:29:36.995Z,24.18
2019-02-07T07:32:26.297Z,25.90
2019-02-07T07:35:16.856Z,25.05
2019-02-07T07:38:04.309Z,24.27
2019-02-07T07:40:50.575Z,23.40
2019-02-07T07:43:31.274Z,24.82
2019-02-07T07:46:19.852Z,25.45
2019-02-07T07:48:57.098Z,26.05
2019-02-07T07:51:44.806Z,27.32
2019-02-07T07:54:31.896Z,25.67
2019-02-07T07:57:25.098Z,25.48
2019-02-07T08:00:20.099Z,27.37
2019-02-07T08:03:12.843Z,27.20
2019-02-07T08:06:10.950Z,24.60
2019-02-07T08:09:04.704Z,26.27
2019-02-07T08:11:45.022Z,25.40
2019-02-07T08:14:30.992Z,24.60
2019-02-07T08:17:16.458Z,24.05
2019-02-07T08:19:58.099Z,26.55
2019-02-07T08:22:43.998Z,24.90
2019-02-07T08:25:23.546Z,24.60
2019-02-07T08:28:13.951Z,23.77
2019-02-07T08:31:01.014Z,24.40
2019-02-07T08:33:46.212Z,25.32
2019-02-07T08:36:39.911Z,25.57
2019-02-07T08:39:23.528Z,27.10
2019-02-07T08:42:16.702Z,27.85
2019-02-07T08:44:59.844Z,26.55
2019-02-07T08:47:58.178Z,27.07
2019-02-07T08:50:42.494Z,27.43
2019-02-07T08:53:28.421Z,30.32
2019-02-07T08:56:09.991Z,26.62
2019-02-07T08:58:56.052Z,27.65
2019-02-07T09:01:48.687Z,25.20
2019-02-07T09:04:34.191Z,27.47
2019-02-07T09:07:19.722Z,28.87
2019-02-07T09:10:21.769Z,26.02
2019-02-07T09:13:07.280Z,27.13
2019-02-07T09:15:56.891Z,39.57
2019-02-07T09:18:43.080Z,31.45
2019-02-07T09:21:42.637Z,28.55
2019-02-07T09:24:32.835Z,27.90
2019-02-07T09:27:34.807Z,27.10
2019-02-07T09:30:21.215Z,29.18
2019-02-07T09:33:07.406Z,29.05
2019-02-07T09:36:04.938Z,29.07
2019-02-07T09:39:01.463Z,40.23
2019-02-07T09:41:54.299Z,38.43
2019-02-07T09:44:31.741Z,34.83
2019-02-07T09:47:07.075Z,32.35
2019-02-07T09:49:47.123Z,28.20
2019-02-07T09:52:37.429Z,31.12
2019-02-07T09:55:28.600Z,29.60
2019-02-07T09:58:14.570Z,28.70
2019-02-07T10:01:04.098Z,29.65
2019-02-07T10:03:51.534Z,29.57
2019-02-07T10:06:28.930Z,31.10
2019-02-07T10:09:05.495Z,27.90
2019-02-07T10:12:01.218Z,29.13
2019-02-07T10:14:57.352Z,28.43
2019-02-07T10:17:45.046Z,28.30
2019-02-07T10:20:24.471Z,31.27
2019-02-07T10:23:10.595Z,28.60
2019-02-07T10:26:01.225Z,30.40
2019-02-07T10:28:47.642Z,28.97
2019-02-07T10:31:33.629Z,27.90
2019-02-07T10:34:20.701Z,36.70
2019-02-07T10:36:56.460Z,36.47
2019-02-07T10:39:46.138Z,36.07
2019-02-07T10:42:53.151Z,28.43
2019-02-07T10:45:44.091Z,31.00
2019-02-07T10:48:32.140Z,31.13
2019-02-07T10:51:18.506Z,27.37
2019-02-07T10:54:11.502Z,27.40
2019-02-07T10:56:59.213Z,27.50
2019-02-07T10:59:46.070Z,29.73
2019-02-07T11:02:30.839Z,29.50
2019-02-07T11:05:18.011Z,29.80
2019-02-07T11:08:20.862Z,28.27
2019-02-07T11:11:23.123Z,29.20
2019-02-07T11:14:13.287Z,32.43
2019-02-07T11:17:12.326Z,28.97
2019-02-07T11:20:03.062Z,29.60
2019-02-07T11:23:01.788Z,32.40
2019-02-07T11:25:49.358Z,27.30
2019-02-07T11:28:34.794Z,28.93
2019-02-07T11:31:28.196Z,28.13
2019-02-07T11:34:13.889Z,28.83
2019-02-07T11:36:57.984Z,27.97
2019-02-07T11:39:44.248Z,30.37
2019-02-07T11:42:31.471Z,28.17
2019-02-07T11:45:21.864Z,30.80
2019-02-07T11:48:01.327Z,31.13
2019-02-07T11:50:46.922Z,29.97
2019-02-07T11:53:40.579Z,31.30
2019-02-07T11:56:15.505Z,28.40
2019-02-07T11:59:01.267Z,28.57
2019-02-07T12:01:40.111Z,28.27
2019-02-07T12:04:25.414Z,30.57
2019-02-07T12:07:20.662Z,30.03
2019-02-07T12:10:13.967Z,29.20
2019-02-07T12:12:48.216Z,31.10
2019-02-07T12:15:38.145Z,33.50
2019-02-07T12:18:23.892Z,30.60
2019-02-07T12:21:05.670Z,41.63
2019-02-07T12:24:01.956Z,42.70
2019-02-07T12:26:36.902Z,39.70
2019-02-07T12:29:23.289Z,31.33
2019-02-07T12:32:10.631Z,32.27
2019-02-07T12:34:59.607Z,32.40
2019-02-07T12:37:47.933Z,30.33
2019-02-07T12:40:34.063Z,33.10
2019-02-07T12:43:27.567Z,30.13
2019-02-07T12:46:13.361Z,31.47
2019-02-07T12:49:09.832Z,32.20
2019-02-07T12:52:03.280Z,31.73
2019-02-07T12:55:05.779Z,30.63
2019-02-07T12:58:05.013Z,32.57
2019-02-07T13:01:12.168Z,44.47
2019-02-07T13:04:02.217Z,34.70
2019-02-07T13:07:06.789Z,31.73
2019-02-07T13:09:41.815Z,33.37
2019-02-07T13:12:30.142Z,33.67
2019-02-07T13:15:17.483Z,31.07
2019-02-07T13:18:04.582Z,33.13
2019-02-07T13:20:46.865Z,33.67
2019-02-07T13:23:32.800Z,37.23
2019-02-07T13:26:23.224Z,34.17
2019-02-07T13:29:07.067Z,34.60
2019-02-07T13:31:52.738Z,40.77
2019-02-07T13:34:40.118Z,41.00
2019-02-07T13:37:39.470Z,45.77
2019-02-07T13:40:27.222Z,35.70
2019-02-07T13:43:12.974Z,49.53
2019-02-07T13:46:08.642Z,44.47
2019-02-07T13:49:10.708Z,46.97
2019-02-07T13:51:57.876Z,37.63
2019-02-07T13:54:47.884Z,40.00
2019-02-07T13:57:41.351Z,38.93
2019-02-07T14:00:28.076Z,36.43
2019-02-07T14:03:12.092Z,41.00
2019-02-07T14:05:57.909Z,33.97
2019-02-07T14:08:50.447Z,33.40
2019-02-07T14:11:42.952Z,35.53
2019-02-07T14:14:33.292Z,32.17
2019-02-07T14:17:23.123Z,33.50
2019-02-07T14:20:03.860Z,35.70
2019-02-07T14:22:55.355Z,40.10
2019-02-07T14:25:48.312Z,34.10
2019-02-07T14:28:41.515Z,33.67
2019-02-07T14:31:14.842Z,33.90
2019-02-07T14:34:04.916Z,35.73
2019-02-07T14:37:00.871Z,42.60
2019-02-07T14:39:46.379Z,33.10
2019-02-07T14:42:36.530Z,34.00
2019-02-07T14:45:18.059Z,35.83
2019-02-07T14:47:46.028Z,34.40
2019-02-07T14:50:15.134Z,33.30
2019-02-07T14:52:42.994Z,33.77
2019-02-07T14:55:11.440Z,32.13
2019-02-07T14:57:39.651Z,33.80
2019-02-07T15:00:09.035Z,32.77
2019-02-07T15:02:38.983Z,33.83
2019-02-07T15:05:07.775Z,33.20
2019-02-07T15:07:36.000Z,34.47
2019-02-07T15:10:05.722Z,33.50
2019-02-07T15:12:35.952Z,34.40
2019-02-07T15:15:05.077Z,34.60
2019-02-07T15:17:33.591Z,36.13
2019-02-07T15:20:01.628Z,37.80
2019-02-07T15:22:29.484Z,33.17
2019-02-07T15:24:57.436Z,34.57
2019-02-07T15:27:25.270Z,44.63
2019-02-07T15:29:53.616Z,36.40
2019-02-07T15:32:21.392Z,36.60
2019-02-07T15:34:49.664Z,34.43
2019-02-07T15:37:17.637Z,36.87
2019-02-07T15:39:46.110Z,36.03
2019-02-07T15:42:13.804Z,35.07
2019-02-07T15:44:41.959Z,36.03
2019-02-07T15:47:10.730Z,36.97
2019-02-07T15:49:38.000Z,35.17
2019-02-07T15:52:06.020Z,34.13
2019-02-07T15:54:34.180Z,32.17
2019-02-07T15:57:02.356Z,35.40
2019-02-07T15:59:35.193Z,37.40
2019-02-07T16:02:27.944Z,33.83
2019-02-07T16:04:55.857Z,36.50
2019-02-07T16:07:23.850Z,40.30
2019-02-07T16:09:51.712Z,37.40
2019-02-07T16:12:20.115Z,31.40
2019-02-07T16:14:48.158Z,33.97
2019-02-07T16:17:16.346Z,35.60
2019-02-07T16:19:44.174Z,36.30
2019-02-07T16:22:11.511Z,35.10
2019-02-07T16:24:39.631Z,36.97
2019-02-07T16:27:07.464Z,38.53
2019-02-07T16:29:35.634Z,37.07
2019-02-07T16:32:03.741Z,42.70
2019-02-07T16:34:31.484Z,37.67
2019-02-07T16:36:59.052Z,34.17
2019-02-07T16:39:27.014Z,34.17
2019-02-07T16:42:05.833Z,35.23
2019-02-07T16:44:27.579Z,36.50
2019-02-07T16:46:55.274Z,32.27
2019-02-07T16:49:23.566Z,34.70
2019-02-07T16:51:51.435Z,35.37
2019-02-07T16:54:19.770Z,36.40
2019-02-07T16:56:48.348Z,38.20
2019-02-07T16:59:16.699Z,45.10
2019-02-07T17:01:45.213Z,36.10
2019-02-07T17:04:16.751Z,35.97
2019-02-07T17:06:45.765Z,36.80
2019-02-07T17:09:23.531Z,39.13
2019-02-07T17:11:51.140Z,38.63
2019-02-07T17:14:19.051Z,38.73
2019-02-07T17:16:47.959Z,38.93
2019-02-07T17:19:15.907Z,38.73
2019-02-07T17:21:43.490Z,38.23
2019-02-07T17:24:12.267Z,41.70
2019-02-07T17:26:53.789Z,37.03
2019-02-07T17:29:22.922Z,36.80
2019-02-07T17:31:51.249Z,36.40
2019-02-07T17:34:20.080Z,36.23
2019-02-07T17:36:47.761Z,34.73
2019-02-07T17:39:16.316Z,35.90
2019-02-07T17:41:44.545Z,36.20
2019-02-07T17:44:12.699Z,33.83
2019-02-07T17:46:40.747Z,32.80
2019-02-07T17:49:08.432Z,33.90
2019-02-07T17:51:36.304Z,37.33
2019-02-07T17:54:04.552Z,32.23
2019-02-07T17:56:33.324Z,35.03
2019-02-07T17:59:01.358Z,36.20
2019-02-07T18:01:29.727Z,35.70
2019-02-07T18:03:57.512Z,32.20
2019-02-07T18:06:25.290Z,32.90
2019-02-07T18:08:53.257Z,33.60
2019-02-07T18:11:21.687Z,32.33
2019-02-07T18:13:50.202Z,31.20
2019-02-07T18:16:18.811Z,32.20
2019-02-07T18:18:47.521Z,28.10
2019-02-07T18:21:18.077Z,30.67
2019-02-07T18:23:46.977Z,28.27
2019-02-07T18:26:15.591Z,29.83
2019-02-07T18:28:44.166Z,28.80
2019-02-07T18:31:12.375Z,27.30
2019-02-07T18:33:41.242Z,31.70
2019-02-07T18:36:09.333Z,29.53
2019-02-07T18:38:38.009Z,25.20
2019-02-07T18:41:06.695Z,25.30
2019-02-07T18:43:34.354Z,26.00
2019-02-07T18:46:01.966Z,25.30
